Time,TemperatureF,DewpointF,PressureIn,WindDirection,WindDirectionDegrees,WindSpeedMPH,WindSpeedGustMPH,Humidity,HourlyPrecipIn,Conditions,Clouds,dailyrainin,SoftwareType,DateUTC
2013-01-07 00:02:00,26.4,24.7,30.03,NNW,337,0.0,-999.0,93,-99.99,,,0.00,Acu-Link.com,2013-01-07 05:02:00,
2013-01-07 00:17:00,28.2,24.9,30.03,NNW,337,0.0,-999.0,87,-99.99,,,0.00,Acu-Link.com,2013-01-07 05:17:00,
2013-01-07 00:32:00,30.9,26.1,30.03,NNW,337,2.2,-999.0,82,-99.99,,,0.00,Acu-Link.com,2013-01-07 05:32:00,
2013-01-07 00:47:00,31.8,25.8,30.04,NNW,337,3.1,-999.0,78,-99.99,,,0.00,Acu-Link.com,2013-01-07 05:47:00,
2013-01-07 01:03:00,32.9,25.9,30.05,NNW,337,4.3,-999.0,75,-99.99,,,0.00,Acu-Link.com,2013-01-07 06:03:00,
2013-01-07 01:18:00,32.2,25.8,30.05,NNW,337,2.7,-999.0,77,-99.99,,,0.00,Acu-Link.com,2013-01-07 06:18:00,
2013-01-07 01:33:00,33.4,26.4,30.06,NNW,337,3.8,-999.0,75,-99.99,,,0.00,Acu-Link.com,2013-01-07 06:33:00,
2013-01-07 01:49:00,32.5,25.8,30.06,West,270,1.6,-999.0,76,-99.99,,,0.00,Acu-Link.com,2013-01-07 06:49:00,
2013-01-07 02:04:00,33.8,26.4,30.07,West,270,2.2,-999.0,74,-99.99,,,0.00,Acu-Link.com,2013-01-07 07:04:00,
2013-01-07 02:19:00,32.5,26.1,30.07,West,270,3.1,-999.0,77,-99.99,,,0.00,Acu-Link.com,2013-01-07 07:19:00,
2013-01-07 02:35:00,32.9,26.2,30.07,SW,225,2.7,-999.0,76,-99.99,,,0.00,Acu-Link.com,2013-01-07 07:35:00,
2013-01-07 02:50:00,32.4,26.3,30.08,SW,225,1.6,-999.0,78,-99.99,,,0.00,Acu-Link.com,2013-01-07 07:50:00,
2013-01-07 03:05:00,33.6,26.6,30.08,NNW,337,1.6,-999.0,75,-99.99,,,0.00,Acu-Link.com,2013-01-07 08:05:00,
2013-01-07 03:20:00,33.4,26.7,30.08,West,270,1.6,-999.0,76,-99.99,,,0.00,Acu-Link.com,2013-01-07 08:20:00,
2013-01-07 03:36:00,32.5,26.5,30.08,SW,225,2.7,-999.0,78,-99.99,,,0.00,Acu-Link.com,2013-01-07 08:36:00,
2013-01-07 03:51:00,32.9,26.8,30.09,West,270,4.3,-999.0,78,-99.99,,,0.00,Acu-Link.com,2013-01-07 08:51:00,
2013-01-07 04:08:00,32.9,26.5,30.09,West,270,2.2,-999.0,77,-99.99,,,0.00,Acu-Link.com,2013-01-07 09:08:00,
2013-01-07 04:23:00,32.5,26.5,30.09,West,270,2.2,-999.0,78,-99.99,,,0.00,Acu-Link.com,2013-01-07 09:23:00,
2013-01-07 04:38:00,31.8,26.4,30.11,West,270,2.2,-999.0,80,-99.99,,,0.00,Acu-Link.com,2013-01-07 09:38:00,
2013-01-07 04:54:00,29.8,25.6,30.11,West,270,0.0,-999.0,84,-99.99,,,0.00,Acu-Link.com,2013-01-07 09:54:00,
2013-01-07 05:09:00,28.8,25.7,30.11,West,270,0.0,-999.0,88,-99.99,,,0.00,Acu-Link.com,2013-01-07 10:09:00,
2013-01-07 05:24:00,28.2,25.7,30.12,West,270,0.0,-999.0,90,-99.99,,,0.00,Acu-Link.com,2013-01-07 10:24:00,
2013-01-07 05:40:00,28.8,26.2,30.13,West,270,2.7,-999.0,90,-99.99,,,0.00,Acu-Link.com,2013-01-07 10:40:00,
2013-01-07 05:55:00,28.9,26.1,30.14,West,270,0.0,-999.0,89,-99.99,,,0.00,Acu-Link.com,2013-01-07 10:55:00,
2013-01-07 06:10:00,28.8,26.2,30.15,West,270,0.0,-999.0,90,-99.99,,,0.00,Acu-Link.com,2013-01-07 11:10:00,
2013-01-07 06:26:00,29.8,27.0,30.16,West,270,2.7,-999.0,89,-99.99,,,0.00,Acu-Link.com,2013-01-07 11:26:00,
2013-01-07 06:41:00,31.3,27.6,30.17,West,270,0.0,-999.0,86,-99.99,,,0.00,Acu-Link.com,2013-01-07 11:41:00,
2013-01-07 06:56:00,31.5,27.2,30.17,West,270,0.0,-999.0,84,-99.99,,,0.00,Acu-Link.com,2013-01-07 11:56:00,
2013-01-07 07:11:00,30.4,26.7,30.18,West,270,1.6,-999.0,86,-99.99,,,0.00,Acu-Link.com,2013-01-07 12:11:00,
2013-01-07 07:27:00,28.8,25.9,30.19,West,270,0.0,-999.0,89,-99.99,,,0.00,Acu-Link.com,2013-01-07 12:27:00,
2013-01-07 07:42:00,28.2,25.9,30.20,West,270,0.0,-999.0,91,-99.99,,,0.00,Acu-Link.com,2013-01-07 12:42:00,
2013-01-07 07:57:00,31.3,27.0,30.21,West,270,1.6,-999.0,84,-99.99,,,0.00,Acu-Link.com,2013-01-07 12:57:00,
2013-01-07 08:13:00,33.4,27.6,30.22,West,270,0.0,-999.0,79,-99.99,,,0.00,Acu-Link.com,2013-01-07 13:13:00,
2013-01-07 08:28:00,35.4,28.3,30.23,West,270,2.2,-999.0,75,-99.99,,,0.00,Acu-Link.com,2013-01-07 13:28:00,
2013-01-07 08:43:00,35.8,28.0,30.25,West,270,0.0,-999.0,73,-99.99,,,0.00,Acu-Link.com,2013-01-07 13:43:00,
2013-01-07 08:59:00,36.9,28.4,30.26,NNW,337,2.2,-999.0,71,-99.99,,,0.00,Acu-Link.com,2013-01-07 13:59:00,
2013-01-07 09:14:00,36.3,27.5,30.27,NNW,337,1.6,-999.0,70,-99.99,,,0.00,Acu-Link.com,2013-01-07 14:14:00,
2013-01-07 09:29:00,34.2,25.1,30.29,NNW,337,2.2,-999.0,69,-99.99,,,0.00,Acu-Link.com,2013-01-07 14:29:00,
2013-01-07 09:44:00,36.1,25.2,30.30,NNW,337,4.7,-999.0,64,-99.99,,,0.00,Acu-Link.com,2013-01-07 14:44:00,
2013-01-07 10:00:00,38.1,24.7,30.31,NNW,337,4.3,-999.0,58,-99.99,,,0.00,Acu-Link.com,2013-01-07 15:00:00,
2013-01-07 10:15:00,37.9,24.1,30.31,North,0,1.6,-999.0,57,-99.99,,,0.00,Acu-Link.com,2013-01-07 15:15:00,
2013-01-07 10:30:00,37.8,23.9,30.32,North,0,4.7,-999.0,57,-99.99,,,0.00,Acu-Link.com,2013-01-07 15:30:00,
2013-01-07 10:46:00,37.4,23.2,30.33,NNW,337,2.2,-999.0,56,-99.99,,,0.00,Acu-Link.com,2013-01-07 15:46:00,
2013-01-07 11:01:00,37.2,22.6,30.33,NNW,337,4.3,-999.0,55,-99.99,,,0.00,Acu-Link.com,2013-01-07 16:01:00,
2013-01-07 11:16:00,38.1,22.5,30.33,NE,45,1.6,-999.0,53,-99.99,,,0.00,Acu-Link.com,2013-01-07 16:16:00,
2013-01-07 11:32:00,39.0,22.4,30.33,NW,315,5.8,-999.0,51,-99.99,,,0.00,Acu-Link.com,2013-01-07 16:32:00,
2013-01-07 11:47:00,39.7,22.2,30.33,NNW,337,7.8,-999.0,49,-99.99,,,0.00,Acu-Link.com,2013-01-07 16:47:00,
2013-01-07 12:02:00,38.8,21.8,30.33,North,0,4.3,-999.0,50,-99.99,,,0.00,Acu-Link.com,2013-01-07 17:02:00,
2013-01-07 12:17:00,38.8,21.3,30.33,North,0,3.1,-999.0,49,-99.99,,,0.00,Acu-Link.com,2013-01-07 17:17:00,
2013-01-07 12:33:00,38.7,21.2,30.34,NW,315,3.1,-999.0,49,-99.99,,,0.00,Acu-Link.com,2013-01-07 17:33:00,
2013-01-07 12:48:00,38.3,21.3,30.33,NNW,337,1.6,-999.0,50,-99.99,,,0.00,Acu-Link.com,2013-01-07 17:48:00,
2013-01-07 13:03:00,38.8,20.8,30.34,WSW,247,1.1,-999.0,48,-99.99,,,0.00,Acu-Link.com,2013-01-07 18:03:00,
2013-01-07 13:19:00,38.8,20.8,30.34,NNW,337,3.1,-999.0,48,-99.99,,,0.00,Acu-Link.com,2013-01-07 18:19:00,
2013-01-07 13:34:00,38.3,20.8,30.35,NNW,337,2.7,-999.0,49,-99.99,,,0.00,Acu-Link.com,2013-01-07 18:34:00,
2013-01-07 13:49:00,40.8,21.1,30.35,WSW,247,5.1,-999.0,45,-99.99,,,0.00,Acu-Link.com,2013-01-07 18:49:00,
2013-01-07 14:05:00,39.6,20.0,30.37,NNW,337,2.2,-999.0,45,-99.99,,,0.00,Acu-Link.com,2013-01-07 19:05:00,
2013-01-07 14:20:00,37.8,20.3,30.36,NNW,337,1.6,-999.0,49,-99.99,,,0.00,Acu-Link.com,2013-01-07 19:20:00,
2013-01-07 14:35:00,38.3,20.4,30.37,North,0,2.7,-999.0,48,-99.99,,,0.00,Acu-Link.com,2013-01-07 19:35:00,
2013-01-07 14:50:00,37.6,20.2,30.38,WSW,247,2.7,-999.0,49,-99.99,,,0.00,Acu-Link.com,2013-01-07 19:50:00,
2013-01-07 15:06:00,37.0,18.7,30.39,NNW,337,2.2,-999.0,47,-99.99,,,0.00,Acu-Link.com,2013-01-07 20:06:00,
2013-01-07 15:21:00,37.0,18.7,30.39,NNW,337,0.0,-999.0,47,-99.99,,,0.00,Acu-Link.com,2013-01-07 20:21:00,
2013-01-07 15:36:00,37.0,18.7,30.39,NNW,337,0.0,-999.0,47,-99.99,,,0.00,Acu-Link.com,2013-01-07 20:36:00,
2013-01-07 15:52:00,36.9,18.5,30.39,NNW,337,2.7,-999.0,47,-99.99,,,0.00,Acu-Link.com,2013-01-07 20:52:00,
2013-01-07 16:07:00,35.1,18.3,30.39,NNW,337,0.0,-999.0,50,-99.99,,,0.00,Acu-Link.com,2013-01-07 21:07:00,
2013-01-07 16:22:00,33.1,18.3,30.40,NNW,337,0.0,-999.0,54,-99.99,,,0.00,Acu-Link.com,2013-01-07 21:22:00,
2013-01-07 16:38:00,31.1,18.9,30.41,NNW,337,0.0,-999.0,60,-99.99,,,0.00,Acu-Link.com,2013-01-07 21:38:00,
2013-01-07 16:53:00,28.8,18.5,30.41,NNW,337,0.0,-999.0,65,-99.99,,,0.00,Acu-Link.com,2013-01-07 21:53:00,
2013-01-07 17:08:00,27.7,17.8,30.42,NNW,337,0.0,-999.0,66,-99.99,,,0.00,Acu-Link.com,2013-01-07 22:08:00,
2013-01-07 17:23:00,26.6,17.8,30.42,NNW,337,0.0,-999.0,69,-99.99,,,0.00,Acu-Link.com,2013-01-07 22:23:00,
2013-01-07 17:39:00,25.0,17.6,30.43,NNW,337,0.0,-999.0,73,-99.99,,,0.00,Acu-Link.com,2013-01-07 22:39:00,
2013-01-07 17:54:00,24.4,18.0,30.42,NNW,337,0.0,-999.0,76,-99.99,,,0.00,Acu-Link.com,2013-01-07 22:54:00,
2013-01-07 18:09:00,23.4,17.5,30.42,NNW,337,0.0,-999.0,78,-99.99,,,0.00,Acu-Link.com,2013-01-07 23:09:00,
2013-01-07 18:24:00,22.5,17.2,30.43,NNW,337,0.0,-999.0,80,-99.99,,,0.00,Acu-Link.com,2013-01-07 23:24:00,
2013-01-07 18:40:00,21.9,17.3,30.43,NNW,337,0.0,-999.0,82,-99.99,,,0.00,Acu-Link.com,2013-01-07 23:40:00,
2013-01-07 18:55:00,21.7,16.8,30.43,NNW,337,0.0,-999.0,81,-99.99,,,0.00,Acu-Link.com,2013-01-07 23:55:00,
2013-01-07 19:10:00,21.0,16.1,30.43,NNW,337,0.0,-999.0,81,-99.99,,,0.00,Acu-Link.com,2013-01-08 00:10:00,
2013-01-07 19:26:00,20.5,17.0,30.43,NNW,337,0.0,-999.0,86,-99.99,,,0.00,Acu-Link.com,2013-01-08 00:26:00,
2013-01-07 19:41:00,20.3,17.1,30.42,NNW,337,0.0,-999.0,87,-99.99,,,0.00,Acu-Link.com,2013-01-08 00:41:00,
2013-01-07 19:56:00,19.8,16.5,30.42,NNW,337,0.0,-999.0,87,-99.99,,,0.00,Acu-Link.com,2013-01-08 00:56:00,
2013-01-07 20:11:00,19.0,16.1,30.42,NNW,337,0.0,-999.0,88,-99.99,,,0.00,Acu-Link.com,2013-01-08 01:11:00,
2013-01-07 20:27:00,18.9,16.4,30.42,NNW,337,0.0,-999.0,90,-99.99,,,0.00,Acu-Link.com,2013-01-08 01:27:00,
2013-01-07 20:42:00,18.3,15.6,30.41,NNW,337,0.0,-999.0,89,-99.99,,,0.00,Acu-Link.com,2013-01-08 01:42:00,
2013-01-07 20:57:00,17.8,15.6,30.41,NNW,337,0.0,-999.0,91,-99.99,,,0.00,Acu-Link.com,2013-01-08 01:57:00,
2013-01-07 21:13:00,17.4,15.0,30.41,NNW,337,0.0,-999.0,90,-99.99,,,0.00,Acu-Link.com,2013-01-08 02:13:00,
2013-01-07 21:28:00,17.6,15.9,30.42,NNW,337,0.0,-999.0,93,-99.99,,,0.00,Acu-Link.com,2013-01-08 02:28:00,
2013-01-07 21:43:00,16.9,14.7,30.42,NNW,337,0.0,-999.0,91,-99.99,,,0.00,Acu-Link.com,2013-01-08 02:43:00,
2013-01-07 21:59:00,16.3,14.2,30.41,NNW,337,0.0,-999.0,91,-99.99,,,0.00,Acu-Link.com,2013-01-08 02:59:00,
2013-01-07 22:14:00,15.8,14.1,30.41,NNW,337,0.0,-999.0,93,-99.99,,,0.00,Acu-Link.com,2013-01-08 03:14:00,
2013-01-07 22:29:00,16.5,15.3,30.41,NNW,337,0.0,-999.0,95,-99.99,,,0.00,Acu-Link.com,2013-01-08 03:29:00,
2013-01-07 22:44:00,15.8,14.6,30.41,NNW,337,0.0,-999.0,95,-99.99,,,0.00,Acu-Link.com,2013-01-08 03:44:00,
2013-01-07 23:00:00,15.6,14.7,30.40,NNW,337,0.0,-999.0,96,-99.99,,,0.00,Acu-Link.com,2013-01-08 04:00:00,
2013-01-07 23:15:00,15.4,14.5,30.40,NNW,337,0.0,-999.0,96,-99.99,,,0.00,Acu-Link.com,2013-01-08 04:15:00,
2013-01-07 23:30:00,15.6,14.7,30.40,NNW,337,0.0,-999.0,96,-99.99,,,0.00,Acu-Link.com,2013-01-08 04:30:00,
2013-01-07 23:46:00,15.8,14.9,30.40,NNW,337,0.0,-999.0,96,-99.99,,,0.00,Acu-Link.com,2013-01-08 04:46:00,